sensor_id;sensor_type;location;lat;lon;timestamp;P1;durP1;ratioP1;P2;durP2;ratioP2
24547;SDS011;12713;51.624;4.924;2023-09-19T00:00:40;11.15;;;2.92;;
24547;SDS011;12713;51.624;4.924;2023-09-19T00:03:34;12.20;;;2.92;;
24547;SDS011;12713;51.624;4.924;2023-09-19T00:06:05;19.50;;;2.65;;
24547;SDS011;12713;51.624;4.924;2023-09-19T00:08:35;13.95;;;3.03;;
24547;SDS011;12713;51.624;4.924;2023-09-19T00:11:04;16.65;;;3.38;;
24547;SDS011;12713;51.624;4.924;2023-09-19T00:13:33;12.32;;;2.88;;
24547;SDS011;12713;51.624;4.924;2023-09-19T00:25:13;16.60;;;4.10;;
24547;SDS011;12713;51.624;4.924;2023-09-19T00:30:57;13.00;;;2.97;;
24547;SDS011;12713;51.624;4.924;2023-09-19T00:33:50;10.25;;;3.83;;
24547;SDS011;12713;51.624;4.924;2023-09-19T00:36:54;10.82;;;2.70;;
24547;SDS011;12713;51.624;4.924;2023-09-19T00:45:21;13.27;;;2.92;;
24547;SDS011;12713;51.624;4.924;2023-09-19T00:50:39;13.05;;;2.88;;
24547;SDS011;12713;51.624;4.924;2023-09-19T00:56:11;11.57;;;3.08;;
24547;SDS011;12713;51.624;4.924;2023-09-19T00:59:04;12.18;;;2.70;;
24547;SDS011;12713;51.624;4.924;2023-09-19T01:01:39;10.93;;;2.78;;
24547;SDS011;12713;51.624;4.924;2023-09-19T01:04:15;14.68;;;3.75;;
24547;SDS011;12713;51.624;4.924;2023-09-19T01:10:20;15.02;;;2.85;;
24547;SDS011;12713;51.624;4.924;2023-09-19T01:15:58;11.50;;;3.15;;
24547;SDS011;12713;51.624;4.924;2023-09-19T01:35:40;12.32;;;3.20;;
24547;SDS011;12713;51.624;4.924;2023-09-19T01:41:23;14.93;;;3.45;;
24547;SDS011;12713;51.624;4.924;2023-09-19T01:44:11;13.13;;;3.00;;
24547;SDS011;12713;51.624;4.924;2023-09-19T01:56:21;14.23;;;3.58;;
24547;SDS011;12713;51.624;4.924;2023-09-19T01:58:51;21.75;;;3.47;;
24547;SDS011;12713;51.624;4.924;2023-09-19T02:01:24;11.35;;;3.55;;
24547;SDS011;12713;51.624;4.924;2023-09-19T02:03:51;22.23;;;4.32;;
24547;SDS011;12713;51.624;4.924;2023-09-19T02:06:19;13.02;;;3.42;;
24547;SDS011;12713;51.624;4.924;2023-09-19T02:09:01;12.68;;;3.08;;
24547;SDS011;12713;51.624;4.924;2023-09-19T02:14:15;10.30;;;3.42;;
24547;SDS011;12713;51.624;4.924;2023-09-19T02:16:41;13.20;;;3.15;;
24547;SDS011;12713;51.624;4.924;2023-09-19T02:19:35;12.43;;;3.20;;
24547;SDS011;12713;51.624;4.924;2023-09-19T02:22:06;14.63;;;3.67;;
24547;SDS011;12713;51.624;4.924;2023-09-19T02:24:48;12.40;;;2.90;;
24547;SDS011;12713;51.624;4.924;2023-09-19T02:27:26;12.20;;;3.63;;
24547;SDS011;12713;51.624;4.924;2023-09-19T02:29:56;13.52;;;2.95;;
24547;SDS011;12713;51.624;4.924;2023-09-19T02:32:27;11.80;;;2.55;;
24547;SDS011;12713;51.624;4.924;2023-09-19T02:34:55;17.90;;;3.70;;
24547;SDS011;12713;51.624;4.924;2023-09-19T02:37:24;12.55;;;3.22;;
24547;SDS011;12713;51.624;4.924;2023-09-19T02:39:51;13.60;;;3.03;;
24547;SDS011;12713;51.624;4.924;2023-09-19T02:42:17;14.75;;;3.00;;
24547;SDS011;12713;51.624;4.924;2023-09-19T02:44:43;11.25;;;3.38;;
24547;SDS011;12713;51.624;4.924;2023-09-19T02:47:11;13.88;;;3.00;;
24547;SDS011;12713;51.624;4.924;2023-09-19T02:49:40;10.55;;;2.85;;
24547;SDS011;12713;51.624;4.924;2023-09-19T02:55:36;15.15;;;2.60;;
24547;SDS011;12713;51.624;4.924;2023-09-19T02:58:18;10.50;;;3.17;;
24547;SDS011;12713;51.624;4.924;2023-09-19T03:00:44;12.27;;;2.92;;
24547;SDS011;12713;51.624;4.924;2023-09-19T03:03:14;13.10;;;2.70;;
24547;SDS011;12713;51.624;4.924;2023-09-19T03:06:00;12.98;;;2.60;;
24547;SDS011;12713;51.624;4.924;2023-09-19T03:08:29;14.43;;;3.05;;
24547;SDS011;12713;51.624;4.924;2023-09-19T03:10:55;12.25;;;2.80;;
24547;SDS011;12713;51.624;4.924;2023-09-19T03:13:21;13.80;;;3.00;;
24547;SDS011;12713;51.624;4.924;2023-09-19T03:15:53;16.90;;;2.70;;
24547;SDS011;12713;51.624;4.924;2023-09-19T03:18:21;11.30;;;2.72;;
24547;SDS011;12713;51.624;4.924;2023-09-19T03:20:54;10.88;;;3.13;;
24547;SDS011;12713;51.624;4.924;2023-09-19T03:23:20;13.53;;;2.97;;
24547;SDS011;12713;51.624;4.924;2023-09-19T03:25:49;11.32;;;2.95;;
24547;SDS011;12713;51.624;4.924;2023-09-19T03:28:20;10.73;;;2.97;;
24547;SDS011;12713;51.624;4.924;2023-09-19T03:30:56;13.80;;;3.08;;
24547;SDS011;12713;51.624;4.924;2023-09-19T03:33:33;9.63;;;3.05;;
24547;SDS011;12713;51.624;4.924;2023-09-19T03:35:59;8.95;;;2.78;;
24547;SDS011;12713;51.624;4.924;2023-09-19T03:38:29;11.00;;;2.80;;
24547;SDS011;12713;51.624;4.924;2023-09-19T03:40:56;11.55;;;2.47;;
24547;SDS011;12713;51.624;4.924;2023-09-19T03:43:25;8.13;;;2.35;;
24547;SDS011;12713;51.624;4.924;2023-09-19T03:45:57;17.35;;;3.58;;
24547;SDS011;12713;51.624;4.924;2023-09-19T03:48:28;11.52;;;3.88;;
24547;SDS011;12713;51.624;4.924;2023-09-19T03:51:01;10.57;;;2.90;;
24547;SDS011;12713;51.624;4.924;2023-09-19T03:53:27;17.70;;;2.88;;
24547;SDS011;12713;51.624;4.924;2023-09-19T03:55:56;20.63;;;2.97;;
24547;SDS011;12713;51.624;4.924;2023-09-19T03:58:24;9.88;;;2.60;;
24547;SDS011;12713;51.624;4.924;2023-09-19T04:00:56;11.13;;;2.92;;
24547;SDS011;12713;51.624;4.924;2023-09-19T04:03:23;13.30;;;2.78;;
24547;SDS011;12713;51.624;4.924;2023-09-19T04:05:59;10.50;;;2.80;;
24547;SDS011;12713;51.624;4.924;2023-09-19T04:08:25;10.52;;;2.47;;
24547;SDS011;12713;51.624;4.924;2023-09-19T04:10:51;12.82;;;2.90;;
24547;SDS011;12713;51.624;4.924;2023-09-19T04:13:18;12.60;;;2.45;;
24547;SDS011;12713;51.624;4.924;2023-09-19T04:18:39;12.02;;;3.58;;
24547;SDS011;12713;51.624;4.924;2023-09-19T04:21:05;14.23;;;3.50;;
24547;SDS011;12713;51.624;4.924;2023-09-19T04:23:32;9.85;;;3.28;;
24547;SDS011;12713;51.624;4.924;2023-09-19T04:26:00;9.65;;;3.08;;
24547;SDS011;12713;51.624;4.924;2023-09-19T04:28:28;14.73;;;3.03;;
24547;SDS011;12713;51.624;4.924;2023-09-19T04:30:55;10.63;;;2.90;;
24547;SDS011;12713;51.624;4.924;2023-09-19T04:33:32;15.98;;;3.20;;
24547;SDS011;12713;51.624;4.924;2023-09-19T04:36:03;9.20;;;2.50;;
24547;SDS011;12713;51.624;4.924;2023-09-19T04:38:41;8.47;;;2.80;;
24547;SDS011;12713;51.624;4.924;2023-09-19T04:41:10;10.40;;;2.92;;
24547;SDS011;12713;51.624;4.924;2023-09-19T04:43:49;7.90;;;2.60;;
24547;SDS011;12713;51.624;4.924;2023-09-19T04:46:16;10.52;;;3.33;;
24547;SDS011;12713;51.624;4.924;2023-09-19T04:48:44;14.82;;;3.00;;
24547;SDS011;12713;51.624;4.924;2023-09-19T04:51:32;10.82;;;3.33;;
24547;SDS011;12713;51.624;4.924;2023-09-19T04:53:59;13.55;;;2.63;;
24547;SDS011;12713;51.624;4.924;2023-09-19T04:56:28;15.07;;;2.95;;
24547;SDS011;12713;51.624;4.924;2023-09-19T04:58:54;12.18;;;3.28;;
24547;SDS011;12713;51.624;4.924;2023-09-19T05:01:20;14.95;;;3.03;;
24547;SDS011;12713;51.624;4.924;2023-09-19T05:03:47;13.10;;;3.10;;
24547;SDS011;12713;51.624;4.924;2023-09-19T05:06:20;8.77;;;2.47;;
24547;SDS011;12713;51.624;4.924;2023-09-19T05:08:49;12.75;;;2.90;;
24547;SDS011;12713;51.624;4.924;2023-09-19T05:11:18;12.05;;;3.63;;
24547;SDS011;12713;51.624;4.924;2023-09-19T05:14:21;9.90;;;2.75;;
24547;SDS011;12713;51.624;4.924;2023-09-19T05:25:54;9.45;;;2.50;;
24547;SDS011;12713;51.624;4.924;2023-09-19T05:28:22;13.07;;;2.88;;
24547;SDS011;12713;51.624;4.924;2023-09-19T05:30:52;12.73;;;3.00;;
24547;SDS011;12713;51.624;4.924;2023-09-19T05:33:21;17.77;;;3.50;;
24547;SDS011;12713;51.624;4.924;2023-09-19T05:35:49;16.42;;;2.97;;
24547;SDS011;12713;51.624;4.924;2023-09-19T05:38:15;10.90;;;2.90;;
24547;SDS011;12713;51.624;4.924;2023-09-19T05:40:47;16.45;;;2.85;;
24547;SDS011;12713;51.624;4.924;2023-09-19T05:43:19;14.52;;;3.50;;
24547;SDS011;12713;51.624;4.924;2023-09-19T05:45:45;12.13;;;3.20;;
24547;SDS011;12713;51.624;4.924;2023-09-19T05:48:12;19.17;;;3.35;;
24547;SDS011;12713;51.624;4.924;2023-09-19T05:50:46;17.45;;;3.80;;
24547;SDS011;12713;51.624;4.924;2023-09-19T05:53:13;16.70;;;2.85;;
24547;SDS011;12713;51.624;4.924;2023-09-19T05:55:40;19.80;;;3.58;;
24547;SDS011;12713;51.624;4.924;2023-09-19T05:58:09;17.00;;;3.28;;
24547;SDS011;12713;51.624;4.924;2023-09-19T06:00:35;14.68;;;3.90;;
24547;SDS011;12713;51.624;4.924;2023-09-19T06:03:05;15.20;;;3.13;;
24547;SDS011;12713;51.624;4.924;2023-09-19T06:05:32;21.13;;;3.53;;
24547;SDS011;12713;51.624;4.924;2023-09-19T06:07:58;16.13;;;2.85;;
24547;SDS011;12713;51.624;4.924;2023-09-19T06:10:29;11.10;;;2.83;;
24547;SDS011;12713;51.624;4.924;2023-09-19T06:12:57;17.50;;;3.30;;
24547;SDS011;12713;51.624;4.924;2023-09-19T06:15:25;22.27;;;3.95;;
24547;SDS011;12713;51.624;4.924;2023-09-19T06:17:57;16.52;;;3.70;;
24547;SDS011;12713;51.624;4.924;2023-09-19T06:20:31;19.02;;;3.20;;
24547;SDS011;12713;51.624;4.924;2023-09-19T06:22:58;15.85;;;3.08;;
24547;SDS011;12713;51.624;4.924;2023-09-19T06:25:24;17.08;;;3.58;;
24547;SDS011;12713;51.624;4.924;2023-09-19T06:27:59;15.83;;;3.20;;
24547;SDS011;12713;51.624;4.924;2023-09-19T06:30:37;20.23;;;3.88;;
24547;SDS011;12713;51.624;4.924;2023-09-19T06:33:10;18.15;;;3.65;;
24547;SDS011;12713;51.624;4.924;2023-09-19T06:35:39;16.33;;;3.30;;
24547;SDS011;12713;51.624;4.924;2023-09-19T06:38:12;17.17;;;3.72;;
24547;SDS011;12713;51.624;4.924;2023-09-19T06:40:40;14.27;;;3.22;;
24547;SDS011;12713;51.624;4.924;2023-09-19T06:43:10;15.52;;;3.47;;
24547;SDS011;12713;51.624;4.924;2023-09-19T06:45:36;8.05;;;3.30;;
24547;SDS011;12713;51.624;4.924;2023-09-19T06:48:02;15.38;;;3.70;;
24547;SDS011;12713;51.624;4.924;2023-09-19T06:50:28;13.85;;;3.42;;
24547;SDS011;12713;51.624;4.924;2023-09-19T06:53:01;16.52;;;4.05;;
24547;SDS011;12713;51.624;4.924;2023-09-19T06:55:27;13.85;;;3.13;;
24547;SDS011;12713;51.624;4.924;2023-09-19T06:57:56;18.73;;;3.45;;
24547;SDS011;12713;51.624;4.924;2023-09-19T07:00:23;14.32;;;3.40;;
24547;SDS011;12713;51.624;4.924;2023-09-19T07:03:03;19.45;;;4.30;;
24547;SDS011;12713;51.624;4.924;2023-09-19T07:05:41;13.30;;;3.80;;
24547;SDS011;12713;51.624;4.924;2023-09-19T07:08:08;15.50;;;3.47;;
24547;SDS011;12713;51.624;4.924;2023-09-19T07:10:38;20.83;;;3.75;;
24547;SDS011;12713;51.624;4.924;2023-09-19T07:13:10;15.07;;;3.63;;
24547;SDS011;12713;51.624;4.924;2023-09-19T07:15:36;19.60;;;3.45;;
24547;SDS011;12713;51.624;4.924;2023-09-19T07:18:16;18.35;;;3.70;;
24547;SDS011;12713;51.624;4.924;2023-09-19T07:20:47;22.15;;;4.47;;
24547;SDS011;12713;51.624;4.924;2023-09-19T07:23:26;13.63;;;3.30;;
24547;SDS011;12713;51.624;4.924;2023-09-19T07:25:56;13.95;;;3.78;;
24547;SDS011;12713;51.624;4.924;2023-09-19T07:28:24;17.88;;;3.75;;
24547;SDS011;12713;51.624;4.924;2023-09-19T07:30:53;14.05;;;3.15;;
24547;SDS011;12713;51.624;4.924;2023-09-19T07:33:20;21.23;;;4.35;;
24547;SDS011;12713;51.624;4.924;2023-09-19T07:36:01;19.35;;;3.95;;
24547;SDS011;12713;51.624;4.924;2023-09-19T07:38:27;16.77;;;3.83;;
24547;SDS011;12713;51.624;4.924;2023-09-19T07:41:01;21.95;;;3.75;;
24547;SDS011;12713;51.624;4.924;2023-09-19T07:43:28;16.33;;;4.80;;
24547;SDS011;12713;51.624;4.924;2023-09-19T07:46:02;13.98;;;3.30;;
24547;SDS011;12713;51.624;4.924;2023-09-19T07:48:32;17.65;;;3.55;;
24547;SDS011;12713;51.624;4.924;2023-09-19T07:51:01;21.27;;;3.78;;
24547;SDS011;12713;51.624;4.924;2023-09-19T07:56:09;17.45;;;4.10;;
24547;SDS011;12713;51.624;4.924;2023-09-19T07:58:35;16.13;;;3.78;;
24547;SDS011;12713;51.624;4.924;2023-09-19T08:01:09;15.70;;;3.55;;
24547;SDS011;12713;51.624;4.924;2023-09-19T08:03:37;12.80;;;3.83;;
24547;SDS011;12713;51.624;4.924;2023-09-19T08:06:09;15.27;;;3.05;;
24547;SDS011;12713;51.624;4.924;2023-09-19T08:08:36;16.30;;;3.53;;
24547;SDS011;12713;51.624;4.924;2023-09-19T08:11:02;14.88;;;3.33;;
24547;SDS011;12713;51.624;4.924;2023-09-19T08:13:46;20.88;;;3.50;;
24547;SDS011;12713;51.624;4.924;2023-09-19T08:22:20;11.90;;;3.00;;
24547;SDS011;12713;51.624;4.924;2023-09-19T08:24:52;11.85;;;3.17;;
24547;SDS011;12713;51.624;4.924;2023-09-19T08:27:20;14.60;;;3.45;;
24547;SDS011;12713;51.624;4.924;2023-09-19T08:29:47;12.88;;;3.30;;
24547;SDS011;12713;51.624;4.924;2023-09-19T08:32:24;13.48;;;3.58;;
24547;SDS011;12713;51.624;4.924;2023-09-19T08:35:00;12.82;;;3.85;;
24547;SDS011;12713;51.624;4.924;2023-09-19T08:37:36;15.60;;;3.53;;
24547;SDS011;12713;51.624;4.924;2023-09-19T08:40:20;17.70;;;3.20;;
24547;SDS011;12713;51.624;4.924;2023-09-19T08:45:37;16.55;;;3.33;;
24547;SDS011;12713;51.624;4.924;2023-09-19T08:48:23;19.73;;;3.28;;
24547;SDS011;12713;51.624;4.924;2023-09-19T08:56:11;18.67;;;3.67;;
24547;SDS011;12713;51.624;4.924;2023-09-19T08:58:51;14.38;;;2.95;;
24547;SDS011;12713;51.624;4.924;2023-09-19T09:01:20;22.63;;;4.53;;
24547;SDS011;12713;51.624;4.924;2023-09-19T09:03:55;14.23;;;3.00;;
24547;SDS011;12713;51.624;4.924;2023-09-19T09:06:22;17.67;;;3.25;;
24547;SDS011;12713;51.624;4.924;2023-09-19T09:08:54;17.73;;;3.65;;
24547;SDS011;12713;51.624;4.924;2023-09-19T09:11:21;14.70;;;4.20;;
24547;SDS011;12713;51.624;4.924;2023-09-19T09:13:53;14.43;;;4.10;;
24547;SDS011;12713;51.624;4.924;2023-09-19T09:16:22;16.80;;;3.75;;
24547;SDS011;12713;51.624;4.924;2023-09-19T09:18:51;17.23;;;4.07;;
24547;SDS011;12713;51.624;4.924;2023-09-19T09:21:19;11.65;;;2.78;;
24547;SDS011;12713;51.624;4.924;2023-09-19T09:24:06;13.25;;;3.25;;
24547;SDS011;12713;51.624;4.924;2023-09-19T09:26:56;16.23;;;3.42;;
24547;SDS011;12713;51.624;4.924;2023-09-19T09:35:27;19.40;;;3.42;;
24547;SDS011;12713;51.624;4.924;2023-09-19T09:37:59;17.05;;;4.38;;
24547;SDS011;12713;51.624;4.924;2023-09-19T09:40:46;11.80;;;3.45;;
24547;SDS011;12713;51.624;4.924;2023-09-19T09:43:25;13.05;;;3.30;;
24547;SDS011;12713;51.624;4.924;2023-09-19T09:49:01;13.98;;;3.72;;
24547;SDS011;12713;51.624;4.924;2023-09-19T09:51:50;12.88;;;3.17;;
24547;SDS011;12713;51.624;4.924;2023-09-19T09:54:24;9.48;;;2.55;;
24547;SDS011;12713;51.624;4.924;2023-09-19T09:57:11;13.93;;;3.10;;
24547;SDS011;12713;51.624;4.924;2023-09-19T09:59:55;13.27;;;3.00;;
24547;SDS011;12713;51.624;4.924;2023-09-19T10:02:43;14.05;;;3.10;;
24547;SDS011;12713;51.624;4.924;2023-09-19T10:05:20;12.52;;;2.50;;
24547;SDS011;12713;51.624;4.924;2023-09-19T10:08:14;7.88;;;2.35;;
24547;SDS011;12713;51.624;4.924;2023-09-19T10:10:52;9.75;;;2.83;;
24547;SDS011;12713;51.624;4.924;2023-09-19T10:13:36;12.95;;;2.78;;
24547;SDS011;12713;51.624;4.924;2023-09-19T10:16:10;10.32;;;2.78;;
24547;SDS011;12713;51.624;4.924;2023-09-19T10:18:36;12.20;;;3.03;;
24547;SDS011;12713;51.624;4.924;2023-09-19T10:21:04;15.65;;;3.20;;
24547;SDS011;12713;51.624;4.924;2023-09-19T10:23:59;14.13;;;2.60;;
24547;SDS011;12713;51.624;4.924;2023-09-19T10:26:32;8.73;;;2.70;;
24547;SDS011;12713;51.624;4.924;2023-09-19T10:29:02;11.38;;;2.67;;
24547;SDS011;12713;51.624;4.924;2023-09-19T10:31:32;9.00;;;2.80;;
24547;SDS011;12713;51.624;4.924;2023-09-19T10:34:21;9.95;;;2.60;;
24547;SDS011;12713;51.624;4.924;2023-09-19T10:37:08;13.85;;;2.85;;
24547;SDS011;12713;51.624;4.924;2023-09-19T10:39:36;12.85;;;2.63;;
24547;SDS011;12713;51.624;4.924;2023-09-19T10:42:22;9.10;;;2.15;;
24547;SDS011;12713;51.624;4.924;2023-09-19T10:44:52;9.20;;;1.83;;
24547;SDS011;12713;51.624;4.924;2023-09-19T10:47:27;10.07;;;2.55;;
24547;SDS011;12713;51.624;4.924;2023-09-19T10:49:58;8.13;;;2.22;;
24547;SDS011;12713;51.624;4.924;2023-09-19T10:52:30;6.22;;;1.92;;
24547;SDS011;12713;51.624;4.924;2023-09-19T10:54:59;11.70;;;2.45;;
24547;SDS011;12713;51.624;4.924;2023-09-19T10:57:44;10.93;;;2.38;;
24547;SDS011;12713;51.624;4.924;2023-09-19T11:00:14;8.57;;;2.42;;
24547;SDS011;12713;51.624;4.924;2023-09-19T11:20:17;7.82;;;1.35;;
24547;SDS011;12713;51.624;4.924;2023-09-19T11:33:39;8.85;;;1.65;;
24547;SDS011;12713;51.624;4.924;2023-09-19T11:36:34;6.57;;;1.70;;
24547;SDS011;12713;51.624;4.924;2023-09-19T11:41:49;8.38;;;2.03;;
24547;SDS011;12713;51.624;4.924;2023-09-19T11:47:09;7.35;;;1.67;;
24547;SDS011;12713;51.624;4.924;2023-09-19T11:49:38;8.57;;;1.67;;
24547;SDS011;12713;51.624;4.924;2023-09-19T11:52:06;7.68;;;1.40;;
24547;SDS011;12713;51.624;4.924;2023-09-19T11:54:33;8.18;;;1.90;;
24547;SDS011;12713;51.624;4.924;2023-09-19T12:00:19;5.13;;;1.40;;
24547;SDS011;12713;51.624;4.924;2023-09-19T12:05:58;6.30;;;1.55;;
24547;SDS011;12713;51.624;4.924;2023-09-19T12:08:27;7.50;;;1.67;;
24547;SDS011;12713;51.624;4.924;2023-09-19T12:11:02;6.07;;;1.65;;
24547;SDS011;12713;51.624;4.924;2023-09-19T12:13:35;7.20;;;1.38;;
24547;SDS011;12713;51.624;4.924;2023-09-19T12:16:11;6.45;;;1.67;;
24547;SDS011;12713;51.624;4.924;2023-09-19T12:18:55;4.85;;;1.60;;
24547;SDS011;12713;51.624;4.924;2023-09-19T12:21:27;6.00;;;1.60;;
24547;SDS011;12713;51.624;4.924;2023-09-19T12:24:11;6.90;;;1.80;;
24547;SDS011;12713;51.624;4.924;2023-09-19T12:26:45;9.35;;;1.92;;
24547;SDS011;12713;51.624;4.924;2023-09-19T12:29:26;7.75;;;1.40;;
24547;SDS011;12713;51.624;4.924;2023-09-19T12:31:53;6.78;;;1.92;;
24547;SDS011;12713;51.624;4.924;2023-09-19T12:34:35;5.15;;;1.30;;
24547;SDS011;12713;51.624;4.924;2023-09-19T12:37:11;4.60;;;1.25;;
24547;SDS011;12713;51.624;4.924;2023-09-19T12:39:43;8.25;;;1.30;;
24547;SDS011;12713;51.624;4.924;2023-09-19T12:42:23;4.68;;;1.40;;
24547;SDS011;12713;51.624;4.924;2023-09-19T12:44:59;3.00;;;1.17;;
24547;SDS011;12713;51.624;4.924;2023-09-19T12:53:32;4.80;;;1.42;;
24547;SDS011;12713;51.624;4.924;2023-09-19T12:56:16;11.13;;;1.27;;
24547;SDS011;12713;51.624;4.924;2023-09-19T13:01:25;10.65;;;1.75;;
24547;SDS011;12713;51.624;4.924;2023-09-19T13:04:16;7.28;;;1.25;;
24547;SDS011;12713;51.624;4.924;2023-09-19T13:06:53;7.10;;;1.20;;
24547;SDS011;12713;51.624;4.924;2023-09-19T13:15:06;8.38;;;1.17;;
24547;SDS011;12713;51.624;4.924;2023-09-19T13:17:43;5.50;;;1.13;;
24547;SDS011;12713;51.624;4.924;2023-09-19T13:20:30;4.25;;;0.95;;
24547;SDS011;12713;51.624;4.924;2023-09-19T13:23:04;8.45;;;1.48;;
24547;SDS011;12713;51.624;4.924;2023-09-19T13:25:35;4.20;;;1.30;;
24547;SDS011;12713;51.624;4.924;2023-09-19T13:28:20;7.35;;;1.33;;
24547;SDS011;12713;51.624;4.924;2023-09-19T13:30:58;6.63;;;1.08;;
24547;SDS011;12713;51.624;4.924;2023-09-19T13:33:33;4.80;;;1.23;;
24547;SDS011;12713;51.624;4.924;2023-09-19T13:36:15;4.22;;;1.50;;
24547;SDS011;12713;51.624;4.924;2023-09-19T13:38:41;9.07;;;1.58;;
24547;SDS011;12713;51.624;4.924;2023-09-19T13:41:08;8.30;;;1.60;;
24547;SDS011;12713;51.624;4.924;2023-09-19T13:43:35;4.00;;;1.13;;
24547;SDS011;12713;51.624;4.924;2023-09-19T13:46:04;4.03;;;1.40;;
24547;SDS011;12713;51.624;4.924;2023-09-19T13:48:52;6.75;;;1.13;;
24547;SDS011;12713;51.624;4.924;2023-09-19T13:51:42;5.97;;;1.80;;
24547;SDS011;12713;51.624;4.924;2023-09-19T13:54:11;6.47;;;1.55;;
24547;SDS011;12713;51.624;4.924;2023-09-19T13:56:45;6.10;;;1.40;;
24547;SDS011;12713;51.624;4.924;2023-09-19T13:59:11;6.57;;;1.88;;
24547;SDS011;12713;51.624;4.924;2023-09-19T14:01:43;4.50;;;1.70;;
24547;SDS011;12713;51.624;4.924;2023-09-19T14:04:12;6.35;;;1.70;;
24547;SDS011;12713;51.624;4.924;2023-09-19T14:06:58;3.58;;;1.50;;
24547;SDS011;12713;51.624;4.924;2023-09-19T14:09:25;8.18;;;2.25;;
24547;SDS011;12713;51.624;4.924;2023-09-19T14:11:52;4.40;;;1.63;;
24547;SDS011;12713;51.624;4.924;2023-09-19T14:14:25;7.47;;;2.35;;
24547;SDS011;12713;51.624;4.924;2023-09-19T14:16:51;6.28;;;1.45;;
24547;SDS011;12713;51.624;4.924;2023-09-19T14:19:24;5.05;;;1.60;;
24547;SDS011;12713;51.624;4.924;2023-09-19T14:21:53;10.90;;;1.77;;
24547;SDS011;12713;51.624;4.924;2023-09-19T14:24:34;4.43;;;1.52;;
24547;SDS011;12713;51.624;4.924;2023-09-19T14:27:03;6.32;;;2.15;;
24547;SDS011;12713;51.624;4.924;2023-09-19T14:29:31;5.07;;;1.48;;
24547;SDS011;12713;51.624;4.924;2023-09-19T14:32:06;10.07;;;1.73;;
24547;SDS011;12713;51.624;4.924;2023-09-19T14:34:44;6.60;;;2.10;;
24547;SDS011;12713;51.624;4.924;2023-09-19T14:40:19;7.53;;;1.70;;
24547;SDS011;12713;51.624;4.924;2023-09-19T14:42:52;6.10;;;1.75;;
24547;SDS011;12713;51.624;4.924;2023-09-19T14:48:21;9.10;;;2.00;;
24547;SDS011;12713;51.624;4.924;2023-09-19T14:50:51;7.38;;;2.13;;
24547;SDS011;12713;51.624;4.924;2023-09-19T14:53:18;10.27;;;2.22;;
24547;SDS011;12713;51.624;4.924;2023-09-19T14:55:45;2.78;;;1.70;;
24547;SDS011;12713;51.624;4.924;2023-09-19T14:58:12;5.60;;;2.00;;
24547;SDS011;12713;51.624;4.924;2023-09-19T15:00:41;5.47;;;1.95;;
24547;SDS011;12713;51.624;4.924;2023-09-19T15:03:13;7.68;;;1.80;;
24547;SDS011;12713;51.624;4.924;2023-09-19T15:05:45;9.93;;;2.70;;
24547;SDS011;12713;51.624;4.924;2023-09-19T15:08:25;10.00;;;2.17;;
24547;SDS011;12713;51.624;4.924;2023-09-19T15:10:51;6.97;;;2.15;;
24547;SDS011;12713;51.624;4.924;2023-09-19T15:13:18;5.10;;;1.70;;
24547;SDS011;12713;51.624;4.924;2023-09-19T15:16:01;7.65;;;1.90;;
24547;SDS011;12713;51.624;4.924;2023-09-19T15:18:34;9.82;;;2.38;;
24547;SDS011;12713;51.624;4.924;2023-09-19T15:21:05;8.02;;;2.28;;
24547;SDS011;12713;51.624;4.924;2023-09-19T15:23:32;6.18;;;1.65;;
24547;SDS011;12713;51.624;4.924;2023-09-19T15:25:59;8.20;;;1.98;;
24547;SDS011;12713;51.624;4.924;2023-09-19T15:28:28;14.32;;;2.38;;
24547;SDS011;12713;51.624;4.924;2023-09-19T15:31:01;5.43;;;1.50;;
24547;SDS011;12713;51.624;4.924;2023-09-19T15:33:38;5.32;;;2.05;;
24547;SDS011;12713;51.624;4.924;2023-09-19T15:41:21;5.72;;;1.60;;
24547;SDS011;12713;51.624;4.924;2023-09-19T15:43:55;6.03;;;2.10;;
24547;SDS011;12713;51.624;4.924;2023-09-19T15:46:24;10.52;;;2.20;;
24547;SDS011;12713;51.624;4.924;2023-09-19T15:48:54;5.75;;;1.90;;
24547;SDS011;12713;51.624;4.924;2023-09-19T15:51:23;6.95;;;1.98;;
24547;SDS011;12713;51.624;4.924;2023-09-19T15:53:53;5.32;;;1.80;;
24547;SDS011;12713;51.624;4.924;2023-09-19T15:56:28;7.50;;;2.28;;
24547;SDS011;12713;51.624;4.924;2023-09-19T15:58:57;8.57;;;1.70;;
24547;SDS011;12713;51.624;4.924;2023-09-19T16:01:23;7.18;;;2.58;;
24547;SDS011;12713;51.624;4.924;2023-09-19T16:03:53;6.07;;;1.77;;
24547;SDS011;12713;51.624;4.924;2023-09-19T16:06:25;8.50;;;2.00;;
24547;SDS011;12713;51.624;4.924;2023-09-19T16:08:52;7.82;;;1.77;;
24547;SDS011;12713;51.624;4.924;2023-09-19T16:11:18;6.78;;;1.65;;
24547;SDS011;12713;51.624;4.924;2023-09-19T16:13:57;10.20;;;2.38;;
24547;SDS011;12713;51.624;4.924;2023-09-19T16:16:26;7.40;;;1.92;;
24547;SDS011;12713;51.624;4.924;2023-09-19T16:19:00;14.18;;;2.20;;
24547;SDS011;12713;51.624;4.924;2023-09-19T16:21:32;8.80;;;2.20;;
24547;SDS011;12713;51.624;4.924;2023-09-19T16:24:05;6.78;;;2.25;;
24547;SDS011;12713;51.624;4.924;2023-09-19T16:26:32;5.00;;;1.80;;
24547;SDS011;12713;51.624;4.924;2023-09-19T16:29:02;6.30;;;2.25;;
24547;SDS011;12713;51.624;4.924;2023-09-19T16:31:28;8.60;;;2.00;;
24547;SDS011;12713;51.624;4.924;2023-09-19T16:33:56;6.38;;;2.00;;
24547;SDS011;12713;51.624;4.924;2023-09-19T16:36:27;5.25;;;1.88;;
24547;SDS011;12713;51.624;4.924;2023-09-19T16:38:56;13.10;;;2.15;;
24547;SDS011;12713;51.624;4.924;2023-09-19T16:41:30;8.13;;;2.08;;
24547;SDS011;12713;51.624;4.924;2023-09-19T16:43:58;7.18;;;2.05;;
24547;SDS011;12713;51.624;4.924;2023-09-19T16:46:28;5.90;;;1.60;;
24547;SDS011;12713;51.624;4.924;2023-09-19T16:49:02;6.78;;;1.85;;
24547;SDS011;12713;51.624;4.924;2023-09-19T16:51:41;11.32;;;2.47;;
24547;SDS011;12713;51.624;4.924;2023-09-19T16:54:24;6.53;;;1.77;;
24547;SDS011;12713;51.624;4.924;2023-09-19T16:56:55;10.45;;;2.22;;
24547;SDS011;12713;51.624;4.924;2023-09-19T16:59:22;10.00;;;2.75;;
24547;SDS011;12713;51.624;4.924;2023-09-19T17:01:48;10.05;;;2.42;;
24547;SDS011;12713;51.624;4.924;2023-09-19T17:04:24;6.38;;;2.03;;
24547;SDS011;12713;51.624;4.924;2023-09-19T17:06:52;6.43;;;2.30;;
24547;SDS011;12713;51.624;4.924;2023-09-19T17:09:18;6.40;;;2.22;;
24547;SDS011;12713;51.624;4.924;2023-09-19T17:11:50;10.10;;;2.13;;
24547;SDS011;12713;51.624;4.924;2023-09-19T17:14:19;6.70;;;2.13;;
24547;SDS011;12713;51.624;4.924;2023-09-19T17:16:47;14.55;;;3.33;;
24547;SDS011;12713;51.624;4.924;2023-09-19T17:19:14;8.63;;;2.00;;
24547;SDS011;12713;51.624;4.924;2023-09-19T17:21:40;17.08;;;2.45;;
24547;SDS011;12713;51.624;4.924;2023-09-19T17:24:11;5.82;;;2.38;;
24547;SDS011;12713;51.624;4.924;2023-09-19T17:26:55;9.63;;;2.42;;
24547;SDS011;12713;51.624;4.924;2023-09-19T17:29:27;10.20;;;3.38;;
24547;SDS011;12713;51.624;4.924;2023-09-19T17:31:56;6.45;;;2.28;;
24547;SDS011;12713;51.624;4.924;2023-09-19T17:34:24;6.20;;;1.95;;
24547;SDS011;12713;51.624;4.924;2023-09-19T17:36:54;7.32;;;2.72;;
24547;SDS011;12713;51.624;4.924;2023-09-19T17:39:23;5.75;;;2.28;;
24547;SDS011;12713;51.624;4.924;2023-09-19T17:41:49;10.18;;;3.13;;
24547;SDS011;12713;51.624;4.924;2023-09-19T17:44:23;9.13;;;2.57;;
24547;SDS011;12713;51.624;4.924;2023-09-19T17:46:53;9.70;;;2.33;;
24547;SDS011;12713;51.624;4.924;2023-09-19T17:49:22;9.02;;;1.92;;
24547;SDS011;12713;51.624;4.924;2023-09-19T17:51:51;11.15;;;2.28;;
24547;SDS011;12713;51.624;4.924;2023-09-19T17:54:18;9.23;;;2.40;;
24547;SDS011;12713;51.624;4.924;2023-09-19T17:56:44;9.10;;;2.65;;
24547;SDS011;12713;51.624;4.924;2023-09-19T17:59:10;10.45;;;2.83;;
24547;SDS011;12713;51.624;4.924;2023-09-19T18:01:38;10.23;;;2.70;;